Time;durP1;ratioP1;P1;durP2;ratioP2;P2;SDS_P1;SDS_P2;PMS_P1;PMS_P2;Temp;Humidity;BMP_temperature;BMP_pressure;BME280_temperature;BME280_humidity;BME280_pressure;Samples;Min_cycle;Max_cycle;Signal;HPM_P1;HPM_P2
2022/05/06 00:01:54;;;;;;;36.83;25.08;;;9.60;99.90;;;;;;5050087;28;20475;-79
2022/05/06 00:04:19;;;;;;;43.50;27.42;;;9.70;99.90;;;;;;5067463;28;20448;-77
2022/05/06 00:06:45;;;;;;;39.60;25.88;;;9.60;99.90;;;;;;5064856;28;20082;-79
2022/05/06 00:09:10;;;;;;;45.58;27.52;;;9.60;99.90;;;;;;5068355;28;20044;-79
2022/05/06 00:11:36;;;;;;;44.45;30.35;;;9.60;99.90;;;;;;5050318;28;20051;-78
2022/05/06 00:14:02;;;;;;;44.38;27.80;;;9.60;99.90;;;;;;5070448;28;20394;-79
2022/05/06 00:16:28;;;;;;;46.58;31.30;;;9.70;99.90;;;;;;5054626;28;20045;-79
2022/05/06 00:18:54;;;;;;;47.80;29.63;;;9.70;99.90;;;;;;5066636;28;20547;-80
2022/05/06 00:21:21;;;;;;;45.40;29.52;;;9.80;99.90;;;;;;5059681;28;20118;-78
2022/05/06 00:23:47;;;;;;;42.58;27.38;;;9.70;99.90;;;;;;5068369;28;20048;-79
2022/05/06 00:26:13;;;;;;;49.72;29.15;;;9.70;99.90;;;;;;5067062;28;20190;-78
2022/05/06 00:28:39;;;;;;;41.95;27.30;;;9.80;99.90;;;;;;5065261;28;20037;-76
2022/05/06 00:31:06;;;;;;;42.88;30.52;;;9.80;99.90;;;;;;5067912;28;20051;-79
2022/05/06 00:33:32;;;;;;;44.70;29.08;;;9.80;99.90;;;;;;5054187;28;20053;-79
2022/05/06 00:36:00;;;;;;;51.20;30.77;;;9.80;99.90;;;;;;5049039;28;20164;-79
2022/05/06 00:38:26;;;;;;;37.35;26.95;;;9.80;99.90;;;;;;5057207;28;20106;-79
2022/05/06 00:40:52;;;;;;;43.10;30.90;;;9.80;99.90;;;;;;5068567;28;20033;-80
2022/05/06 00:43:19;;;;;;;39.58;25.85;;;9.60;99.90;;;;;;5061404;28;20040;-80
2022/05/06 00:45:55;;;;;;;35.55;25.65;;;9.60;99.90;;;;;;5069569;28;20047;-80
2022/05/06 00:48:26;;;;;;;44.05;28.52;;;9.60;99.90;;;;;;5060454;28;20041;-79
2022/05/06 00:50:53;;;;;;;39.90;26.35;;;9.50;99.90;;;;;;5069386;28;20047;-80
2022/05/06 00:53:19;;;;;;;37.38;26.50;;;9.50;99.90;;;;;;5061430;28;20044;-79
2022/05/06 00:55:44;;;;;;;46.70;28.30;;;9.40;99.90;;;;;;5048316;28;20117;-79
2022/05/06 00:58:10;;;;;;;46.30;29.98;;;9.40;99.90;;;;;;5051825;28;20056;-79
2022/05/06 01:00:36;;;;;;;48.92;29.17;;;9.40;99.90;;;;;;5065976;28;20045;-79
2022/05/06 01:03:02;;;;;;;46.85;29.35;;;9.40;99.90;;;;;;5064621;28;20498;-76
2022/05/06 01:05:30;;;;;;;41.38;27.27;;;9.40;99.90;;;;;;5069290;28;20048;-79
2022/05/06 01:07:58;;;;;;;41.03;28.48;;;9.20;99.90;;;;;;5061950;28;20060;-80
2022/05/06 01:10:24;;;;;;;41.60;27.52;;;9.10;99.90;;;;;;5065287;28;20048;-80
2022/05/06 01:12:50;;;;;;;40.13;26.23;;;9.10;99.90;;;;;;5067054;28;20040;-77
2022/05/06 01:15:20;;;;;;;40.28;26.40;;;9.10;99.90;;;;;;5061292;28;20127;-80
2022/05/06 01:17:47;;;;;;;41.65;26.83;;;9.10;99.90;;;;;;5065308;28;20393;-79
2022/05/06 01:20:17;;;;;;;42.25;26.60;;;9.00;99.90;;;;;;5065702;28;20090;-78
2022/05/06 01:22:48;;;;;;;42.03;28.57;;;9.10;99.90;;;;;;5057729;28;20048;-83
2022/05/06 01:25:14;;;;;;;45.40;27.73;;;9.10;99.90;;;;;;5064732;28;20059;-79
2022/05/06 01:27:51;;;;;;;42.92;29.40;;;9.10;99.90;;;;;;5064660;28;20051;-79
2022/05/06 01:30:25;;;;;;;44.00;29.70;;;9.10;99.90;;;;;;5062809;28;20578;-78
2022/05/06 01:32:52;;;;;;;42.33;26.58;;;9.10;99.90;;;;;;5052929;28;20047;-79
2022/05/06 01:35:21;;;;;;;43.50;27.95;;;9.10;99.90;;;;;;5065900;28;20048;-79
2022/05/06 01:37:49;;;;;;;39.72;27.38;;;9.10;99.90;;;;;;5064472;28;20099;-78
2022/05/06 01:40:18;;;;;;;46.42;27.67;;;9.00;99.90;;;;;;5061455;28;20113;-78
2022/05/06 01:42:46;;;;;;;38.97;26.60;;;9.00;99.90;;;;;;5050470;28;20047;-78
2022/05/06 01:45:15;;;;;;;37.33;25.75;;;9.00;99.90;;;;;;5062495;28;20096;-78
2022/05/06 01:47:41;;;;;;;40.83;27.52;;;9.00;99.90;;;;;;5061051;28;20040;-78
2022/05/06 01:50:09;;;;;;;45.20;28.83;;;9.00;99.90;;;;;;5066171;28;20044;-76
2022/05/06 01:52:37;;;;;;;43.35;28.48;;;9.00;99.90;;;;;;5063880;28;20040;-78
2022/05/06 01:55:05;;;;;;;40.00;26.00;;;8.90;99.90;;;;;;5058735;28;20452;-78
2022/05/06 01:57:31;;;;;;;48.75;28.55;;;8.80;99.90;;;;;;5063170;28;20048;-78
2022/05/06 01:59:56;;;;;;;268.85;31.30;;;8.70;99.90;;;;;;5062540;28;20040;-79
2022/05/06 02:02:22;;;;;;;157.13;32.78;;;8.70;99.90;;;;;;5066418;28;20646;-79
2022/05/06 02:07:31;;;;;;;100.10;28.88;;;8.50;99.90;;;;;;5064895;28;20049;-79
2022/05/06 02:09:57;;;;;;;363.63;42.88;;;8.40;99.90;;;;;;5057328;28;20376;-79
2022/05/06 02:12:23;;;;;;;168.07;32.35;;;8.40;99.90;;;;;;5046554;28;20051;-79
2022/05/06 02:14:49;;;;;;;131.63;32.30;;;8.30;99.90;;;;;;5056245;28;20549;-79
2022/05/06 02:17:14;;;;;;;160.30;32.78;;;8.30;99.90;;;;;;5065634;28;20127;-80
2022/05/06 02:19:42;;;;;;;60.22;29.85;;;8.30;99.90;;;;;;5056806;28;20108;-80
2022/05/06 02:22:07;;;;;;;42.50;30.60;;;8.30;99.90;;;;;;5066242;28;20650;-76
2022/05/06 02:24:33;;;;;;;45.55;27.58;;;8.40;99.90;;;;;;5068548;28;20119;-79
2022/05/06 02:26:58;;;;;;;38.67;27.98;;;8.40;99.90;;;;;;5053539;28;20040;-78
2022/05/06 02:29:24;;;;;;;36.67;29.27;;;8.30;99.90;;;;;;5055452;28;20064;-78
2022/05/06 02:34:34;;;;;;;38.10;30.15;;;8.60;99.90;;;;;;5058764;28;20036;-78
2022/05/06 02:36:59;;;;;;;46.17;32.63;;;8.50;99.90;;;;;;5070909;28;20043;-78
2022/05/06 02:39:26;;;;;;;43.33;30.20;;;8.60;99.90;;;;;;5057594;28;20737;-77
2022/05/06 02:41:52;;;;;;;43.47;32.55;;;8.70;99.90;;;;;;5070430;28;20052;-78
2022/05/06 02:44:18;;;;;;;46.67;33.08;;;8.80;99.90;;;;;;5063782;28;20044;-77
2022/05/06 02:46:43;;;;;;;53.63;33.55;;;8.80;99.90;;;;;;5061694;28;20482;-79
2022/05/06 02:49:09;;;;;;;46.70;31.52;;;8.80;99.90;;;;;;5058817;28;20335;-79
2022/05/06 02:51:35;;;;;;;64.43;40.33;;;8.80;99.90;;;;;;5070994;28;20453;-79
2022/05/06 02:54:00;;;;;;;65.35;36.75;;;8.90;99.90;;;;;;5065986;28;20153;-79
2022/05/06 02:56:26;;;;;;;82.28;35.15;;;8.80;99.90;;;;;;5068865;28;20039;-78
2022/05/06 02:58:52;;;;;;;65.07;36.38;;;8.90;99.90;;;;;;5064287;28;20532;-78
2022/05/06 03:01:17;;;;;;;66.32;38.33;;;8.80;99.90;;;;;;5067159;28;20402;-80
2022/05/06 03:03:43;;;;;;;70.63;35.35;;;9.00;99.90;;;;;;5069685;28;20090;-78
2022/05/06 03:06:09;;;;;;;83.80;37.15;;;9.00;99.90;;;;;;5065291;28;20056;-79
2022/05/06 03:08:35;;;;;;;64.40;36.70;;;9.10;99.90;;;;;;5054621;28;20530;-79
2022/05/06 03:11:01;;;;;;;90.45;38.47;;;9.00;99.90;;;;;;5059951;28;20040;-79
2022/05/06 03:13:27;;;;;;;80.80;40.80;;;9.00;99.90;;;;;;5070874;28;20474;-79
2022/05/06 03:15:53;;;;;;;75.05;35.92;;;9.10;99.90;;;;;;5069214;28;20040;-78
2022/05/06 03:18:19;;;;;;;66.18;34.65;;;9.00;99.90;;;;;;5069044;28;20040;-79
2022/05/06 03:20:45;;;;;;;88.40;38.20;;;9.00;99.90;;;;;;5059275;28;20050;-80
2022/05/06 03:23:14;;;;;;;109.78;41.42;;;9.10;99.90;;;;;;5069828;28;20037;-79
2022/05/06 03:25:39;;;;;;;113.05;37.30;;;9.10;99.90;;;;;;5068812;28;20095;-79
2022/05/06 03:28:08;;;;;;;109.05;42.65;;;9.10;99.90;;;;;;5058004;28;20060;-78
2022/05/06 03:30:40;;;;;;;104.88;39.78;;;9.20;99.90;;;;;;5057331;28;20439;-78
2022/05/06 03:33:12;;;;;;;117.45;41.13;;;9.30;99.90;;;;;;5047719;28;20059;-78
2022/05/06 03:35:39;;;;;;;90.35;42.17;;;9.30;99.90;;;;;;5066338;28;20037;-80
2022/05/06 03:38:06;;;;;;;137.07;46.17;;;9.30;99.90;;;;;;5069303;28;20053;-79
2022/05/06 03:40:32;;;;;;;118.80;43.53;;;9.40;99.90;;;;;;5028626;28;20483;-79
2022/05/06 03:42:59;;;;;;;122.40;46.35;;;9.40;99.90;;;;;;5066482;28;20135;-79
2022/05/06 03:45:25;;;;;;;172.88;50.47;;;9.50;99.90;;;;;;5066234;28;20044;-79
2022/05/06 03:47:50;;;;;;;127.13;47.15;;;9.40;99.90;;;;;;5066166;28;20048;-77
2022/05/06 03:53:00;;;;;;;169.35;47.75;;;9.50;99.90;;;;;;5049130;28;20044;-77
2022/05/06 03:55:26;;;;;;;187.15;50.38;;;9.50;99.90;;;;;;5057828;28;20154;-79
2022/05/06 03:57:52;;;;;;;199.65;50.35;;;9.60;99.90;;;;;;5067094;28;20036;-80
2022/05/06 04:00:19;;;;;;;238.77;52.17;;;9.60;99.90;;;;;;5064945;28;20048;-78
2022/05/06 04:02:45;;;;;;;218.43;48.40;;;9.60;99.90;;;;;;5052504;28;20041;-78
2022/05/06 04:05:11;;;;;;;202.88;49.58;;;9.60;99.90;;;;;;5032146;28;20041;-79
2022/05/06 04:07:37;;;;;;;240.93;50.00;;;9.40;99.90;;;;;;5063040;28;20052;-79
2022/05/06 04:10:03;;;;;;;208.35;49.17;;;9.50;99.90;;;;;;5057219;28;20045;-77
2022/05/06 04:12:29;;;;;;;273.92;50.65;;;9.60;99.90;;;;;;5064759;28;20071;-79
2022/05/06 04:14:55;;;;;;;227.52;49.30;;;9.50;99.90;;;;;;5057823;28;20482;-79
2022/05/06 04:17:23;;;;;;;226.93;48.42;;;9.60;99.90;;;;;;5063402;28;20037;-79
2022/05/06 04:25:18;;;;;;;185.07;43.20;;;9.70;99.90;;;;;;5059575;28;20048;-78
2022/05/06 04:27:44;;;;;;;254.40;45.75;;;9.70;99.90;;;;;;5052456;28;20047;-79
2022/05/06 04:30:11;;;;;;;293.33;47.38;;;9.80;99.90;;;;;;5068289;28;20047;-77
2022/05/06 04:32:37;;;;;;;287.15;45.25;;;9.90;99.90;;;;;;5066237;28;20379;-79
2022/05/06 04:35:08;;;;;;;235.70;45.33;;;9.90;99.90;;;;;;5053543;28;20120;-74
2022/05/06 04:37:34;;;;;;;344.60;53.03;;;10.00;99.90;;;;;;5060541;28;20044;-80
2022/05/06 04:40:00;;;;;;;314.60;50.42;;;10.00;99.90;;;;;;5053221;28;20045;-80
2022/05/06 04:42:26;;;;;;;369.50;54.03;;;10.00;99.90;;;;;;5067118;28;20056;-78
2022/05/06 04:44:51;;;;;;;227.13;48.10;;;10.10;99.90;;;;;;5068483;28;20052;-78
2022/05/06 04:47:17;;;;;;;326.33;55.55;;;10.10;99.90;;;;;;5061077;28;20044;-78
2022/05/06 04:49:43;;;;;;;235.52;46.53;;;10.10;99.90;;;;;;5059895;28;20056;-79
2022/05/06 04:52:08;;;;;;;252.88;51.53;;;10.30;99.90;;;;;;5056360;28;20037;-78
2022/05/06 04:54:34;;;;;;;170.63;45.15;;;10.20;99.90;;;;;;5066726;28;20052;-78
2022/05/06 04:57:00;;;;;;;208.70;49.17;;;10.20;99.90;;;;;;5054493;28;20123;-78
2022/05/06 04:59:26;;;;;;;171.82;49.15;;;10.30;99.90;;;;;;5064181;28;20036;-79
2022/05/06 05:01:51;;;;;;;278.30;57.03;;;10.40;99.90;;;;;;5078780;28;20044;-78
2022/05/06 05:04:17;;;;;;;249.70;53.20;;;10.40;99.90;;;;;;5068345;28;20040;-78
2022/05/06 05:06:42;;;;;;;214.38;48.92;;;10.50;99.90;;;;;;5063813;28;20678;-78
2022/05/06 05:09:08;;;;;;;209.35;49.47;;;10.50;99.90;;;;;;5055496;28;20051;-77
2022/05/06 05:11:34;;;;;;;289.98;53.22;;;10.60;99.90;;;;;;5063698;28;20047;-77
2022/05/06 05:14:03;;;;;;;273.80;53.92;;;10.60;99.90;;;;;;5065424;28;20049;-78
2022/05/06 05:16:29;;;;;;;167.48;47.97;;;10.70;99.90;;;;;;5066999;28;20037;-78
2022/05/06 05:18:54;;;;;;;158.10;43.75;;;10.70;99.90;;;;;;5066324;28;20119;-78
2022/05/06 05:21:20;;;;;;;368.52;53.17;;;10.70;99.90;;;;;;5052467;28;20799;-78
2022/05/06 05:23:46;;;;;;;165.75;43.67;;;10.60;99.90;;;;;;5049508;28;20052;-78
2022/05/06 05:26:12;;;;;;;128.73;38.45;;;10.70;99.90;;;;;;5048556;28;20045;-78
2022/05/06 05:28:38;;;;;;;100.30;37.08;;;10.70;99.90;;;;;;5059936;28;20100;-78
2022/05/06 05:31:03;;;;;;;195.05;41.97;;;10.80;99.90;;;;;;5054930;28;20045;-77
2022/05/06 05:33:29;;;;;;;173.40;42.63;;;10.80;99.90;;;;;;5059670;28;20052;-78
2022/05/06 05:35:55;;;;;;;112.07;34.13;;;10.90;99.90;;;;;;5068429;28;20047;-79
2022/05/06 05:38:20;;;;;;;98.97;36.72;;;10.80;99.90;;;;;;5069355;28;20394;-77
2022/05/06 05:40:46;;;;;;;95.03;35.53;;;10.90;99.90;;;;;;5064179;28;20121;-82
2022/05/06 05:48:43;;;;;;;75.95;28.48;;;11.00;99.90;;;;;;5053228;28;20084;-82
2022/05/06 05:51:11;;;;;;;67.13;26.65;;;11.00;99.90;;;;;;5068038;28;20040;-83
2022/05/06 05:53:38;;;;;;;67.32;27.10;;;11.00;99.90;;;;;;5066808;28;20040;-82
2022/05/06 05:56:03;;;;;;;60.67;24.33;;;11.10;99.90;;;;;;5063390;28;20120;-77
2022/05/06 05:58:29;;;;;;;48.90;21.00;;;11.00;99.90;;;;;;5063951;28;20131;-82
2022/05/06 06:00:55;;;;;;;51.33;22.27;;;11.00;99.90;;;;;;5065945;28;20037;-82
2022/05/06 06:03:20;;;;;;;44.45;21.42;;;11.00;99.90;;;;;;5054759;28;20048;-81
2022/05/06 06:05:47;;;;;;;39.90;19.42;;;11.00;99.90;;;;;;5067394;28;20395;-83
2022/05/06 06:08:12;;;;;;;35.58;18.55;;;11.00;99.90;;;;;;5052233;28;20061;-82
2022/05/06 06:10:39;;;;;;;30.85;16.65;;;11.00;99.90;;;;;;5059647;28;20612;-81
2022/05/06 06:13:05;;;;;;;28.83;15.75;;;11.00;99.90;;;;;;5065161;28;20164;-82
2022/05/06 06:15:32;;;;;;;32.58;17.23;;;11.00;99.90;;;;;;5049739;28;20110;-82
2022/05/06 06:17:57;;;;;;;32.35;18.35;;;11.10;99.90;;;;;;5049427;28;20040;-83
2022/05/06 06:20:23;;;;;;;33.72;17.55;;;11.10;99.90;;;;;;5047817;28;20099;-83
2022/05/06 06:22:50;;;;;;;32.65;17.67;;;11.20;99.90;;;;;;5049789;28;20053;-85
2022/05/06 06:25:16;;;;;;;28.60;15.70;;;11.20;99.90;;;;;;5056453;28;20450;-82
2022/05/06 06:27:43;;;;;;;35.65;17.08;;;11.30;99.90;;;;;;5046663;28;20557;-83
2022/05/06 06:30:10;;;;;;;27.75;16.65;;;11.20;99.90;;;;;;5049918;28;20045;-83
2022/05/06 06:32:36;;;;;;;24.55;15.13;;;11.20;99.90;;;;;;5063563;28;20049;-83
2022/05/06 06:35:01;;;;;;;23.30;15.27;;;11.30;99.90;;;;;;5059743;28;20509;-83
2022/05/06 06:37:27;;;;;;;32.83;18.08;;;11.30;99.90;;;;;;5067830;28;20086;-82
2022/05/06 06:39:53;;;;;;;26.48;15.68;;;11.40;99.90;;;;;;5061105;28;20408;-82
2022/05/06 06:42:19;;;;;;;21.02;13.85;;;11.40;99.90;;;;;;5068635;28;20040;-82
2022/05/06 06:44:44;;;;;;;19.80;13.85;;;11.20;99.90;;;;;;5066862;28;20041;-83
2022/05/06 06:47:11;;;;;;;17.58;14.30;;;11.40;99.90;;;;;;5065929;28;20474;-81
2022/05/06 06:49:36;;;;;;;17.00;11.27;;;11.50;99.90;;;;;;5059480;28;20052;-80
2022/05/06 06:52:04;;;;;;;18.70;12.55;;;11.40;99.90;;;;;;5063716;28;20402;-77
2022/05/06 06:54:29;;;;;;;16.10;12.88;;;11.60;99.90;;;;;;5061910;28;20558;-82
2022/05/06 06:56:55;;;;;;;16.00;11.30;;;11.60;99.90;;;;;;5067661;28;20068;-82
2022/05/06 06:59:20;;;;;;;18.33;11.48;;;11.60;99.90;;;;;;5061306;28;20036;-80
2022/05/06 07:01:46;;;;;;;15.38;10.50;;;11.60;99.90;;;;;;5067599;28;20037;-81
2022/05/06 07:04:12;;;;;;;13.13;10.95;;;11.60;99.90;;;;;;5061615;28;20057;-82
2022/05/06 07:12:06;;;;;;;13.52;11.32;;;11.70;99.90;;;;;;5050729;28;20389;-85
2022/05/06 07:14:33;;;;;;;11.35;9.55;;;11.70;99.90;;;;;;5064681;28;20131;-85
2022/05/06 07:16:59;;;;;;;11.32;9.55;;;11.80;99.90;;;;;;5068906;28;20041;-85
2022/05/06 07:19:28;;;;;;;11.85;10.30;;;11.90;99.90;;;;;;5075018;28;20096;-82
2022/05/06 07:21:54;;;;;;;14.20;11.05;;;11.90;99.90;;;;;;5072175;28;20139;-84
2022/05/06 07:24:24;;;;;;;14.27;10.75;;;11.90;99.90;;;;;;5067446;28;20482;-77
2022/05/06 07:26:50;;;;;;;;;;;12.00;99.90;;;;;;5070379;28;20090;-81
2022/05/06 07:29:16;;;;;;;13.18;11.32;;;12.10;99.90;;;;;;5067809;28;19925;-89
2022/05/06 07:31:43;;;;;;;13.63;10.98;;;12.10;99.90;;;;;;5069173;28;20053;-90
2022/05/06 07:34:10;;;;;;;12.40;11.13;;;12.10;99.90;;;;;;5055677;28;20063;-91
2022/05/06 07:36:41;;;;;;;12.93;11.27;;;12.40;99.90;;;;;;5076784;28;20041;-88
2022/05/06 07:39:13;;;;;;;11.93;10.20;;;12.50;99.90;;;;;;5075215;28;20036;-88
2022/05/06 07:41:39;;;;;;;11.20;10.02;;;12.70;99.90;;;;;;5063474;28;20179;-82
2022/05/06 07:44:06;;;;;;;12.90;11.00;;;12.80;99.90;;;;;;5062365;28;20040;-87
2022/05/06 07:46:32;;;;;;;11.50;10.40;;;12.70;99.90;;;;;;5061456;28;20047;-86
2022/05/06 07:48:58;;;;;;;12.02;10.73;;;12.80;99.90;;;;;;5070063;28;20132;-88
2022/05/06 07:51:24;;;;;;;12.25;11.05;;;12.80;99.90;;;;;;5064991;28;20090;-86
2022/05/06 07:53:52;;;;;;;12.93;10.80;;;12.80;99.90;;;;;;5057735;28;20091;-85
2022/05/06 07:56:20;;;;;;;9.55;8.57;;;12.80;99.90;;;;;;5069722;28;20051;-89
2022/05/06 07:58:47;;;;;;;9.90;8.90;;;12.90;99.90;;;;;;5071186;28;20565;-90
2022/05/06 08:01:13;;;;;;;9.65;8.60;;;13.00;99.90;;;;;;5075607;28;20056;-88
2022/05/06 08:06:24;;;;;;;8.75;7.85;;;13.60;99.90;;;;;;5065454;28;20052;-90
2022/05/06 08:08:49;;;;;;;9.68;8.80;;;13.60;99.90;;;;;;5090857;28;20048;-77
2022/05/06 08:11:16;;;;;;;9.40;8.48;;;13.70;99.90;;;;;;5076938;28;20054;-83
2022/05/06 08:13:42;;;;;;;9.07;8.18;;;13.80;99.90;;;;;;5067110;28;20049;-85
2022/05/06 08:16:09;;;;;;;8.85;7.18;;;13.60;99.90;;;;;;5077803;28;20079;-76
2022/05/06 08:18:35;;;;;;;8.65;7.80;;;13.70;99.90;;;;;;5066671;28;20068;-89
2022/05/06 08:21:00;;;;;;;8.80;7.95;;;13.60;99.90;;;;;;5095371;28;20019;-89
2022/05/06 08:23:26;;;;;;;10.80;8.50;;;13.70;99.90;;;;;;5090325;28;20028;-87
2022/05/06 08:25:52;;;;;;;9.18;8.27;;;13.90;99.90;;;;;;5090523;28;20040;-86
2022/05/06 08:28:19;;;;;;;9.38;8.48;;;13.90;99.90;;;;;;5090840;28;20040;-86
2022/05/06 08:30:48;;;;;;;9.80;8.10;;;13.80;99.90;;;;;;5083389;28;20058;-79
2022/05/06 08:33:14;;;;;;;7.80;7.10;;;14.00;99.90;;;;;;5089274;28;20067;-81
2022/05/06 08:35:41;;;;;;;8.43;7.63;;;14.20;99.90;;;;;;5079366;28;20310;-81
2022/05/06 08:38:08;;;;;;;8.80;7.82;;;14.30;99.90;;;;;;5079674;28;20044;-88
2022/05/06 08:40:35;;;;;;;7.68;6.65;;;14.30;99.90;;;;;;5087383;28;20398;-86
2022/05/06 08:43:03;;;;;;;8.50;7.68;;;14.60;99.90;;;;;;5086202;28;20044;-86
2022/05/06 08:51:01;;;;;;;6.72;5.65;;;14.80;99.90;;;;;;5060624;28;20060;-82
2022/05/06 08:53:30;;;;;;;6.22;5.63;;;14.70;99.90;;;;;;5057199;28;20055;-84
2022/05/06 08:55:57;;;;;;;5.68;5.18;;;14.60;99.90;;;;;;5069355;28;20043;-84
2022/05/06 08:58:24;;;;;;;5.75;5.22;;;14.70;99.90;;;;;;5071897;28;20032;-82
2022/05/06 09:01:03;;;;;;;10.15;6.38;;;14.80;99.90;;;;;;5073637;28;20040;-78
2022/05/06 09:03:29;;;;;;;6.40;5.80;;;14.90;99.90;;;;;;5068989;28;20033;-85
2022/05/06 09:05:59;;;;;;;6.75;5.95;;;15.00;99.90;;;;;;5072778;28;20040;-83
2022/05/06 09:08:44;;;;;;;6.53;5.80;;;15.40;99.90;;;;;;5075054;28;20494;-86
2022/05/06 09:11:11;;;;;;;7.43;6.57;;;15.50;99.90;;;;;;5070386;28;20068;-86
2022/05/06 09:13:51;;;;;;;6.88;6.13;;;15.40;99.90;;;;;;5070564;28;20044;-82
2022/05/06 09:19:21;;;;;;;6.20;5.47;;;15.60;99.90;;;;;;5065130;28;20052;-83
2022/05/06 09:22:09;;;;;;;6.70;5.72;;;16.00;99.90;;;;;;5070262;28;20124;-84
2022/05/06 09:24:37;;;;;;;5.25;4.75;;;16.00;99.90;;;;;;5051908;28;20080;-84
2022/05/06 09:27:11;;;;;;;6.15;5.55;;;16.10;99.90;;;;;;5060351;28;20384;-86
2022/05/06 09:29:46;;;;;;;5.55;5.05;;;16.60;99.90;;;;;;5051861;28;20048;-85
2022/05/06 09:32:17;;;;;;;5.63;4.90;;;16.80;99.90;;;;;;5066780;28;20068;-86
2022/05/06 09:34:44;;;;;;;5.25;4.75;;;16.80;99.90;;;;;;5064775;28;20080;-88
2022/05/06 09:37:10;;;;;;;5.93;4.95;;;16.60;99.90;;;;;;5024688;28;20095;-87
2022/05/06 09:39:39;;;;;;;4.47;3.80;;;16.20;99.90;;;;;;5050224;28;20045;-88
2022/05/06 09:42:06;;;;;;;5.13;3.75;;;16.00;99.90;;;;;;5039163;28;20044;-86
2022/05/06 09:44:35;;;;;;;3.90;3.58;;;16.10;99.90;;;;;;5048585;28;20072;-71
2022/05/06 09:47:11;;;;;;;4.97;4.05;;;16.50;99.90;;;;;;5061270;28;20044;-86
2022/05/06 09:49:42;;;;;;;3.97;3.55;;;16.80;99.90;;;;;;5064237;28;20041;-82
2022/05/06 09:52:13;;;;;;;4.07;3.67;;;16.70;99.90;;;;;;5066129;28;20121;-79
2022/05/06 09:54:44;;;;;;;4.65;4.25;;;16.90;99.90;;;;;;5065409;28;20048;-88
2022/05/06 09:57:11;;;;;;;7.82;4.38;;;17.20;99.90;;;;;;5065723;28;20123;-85
2022/05/06 09:59:37;;;;;;;4.00;3.60;;;17.00;99.90;;;;;;5068274;28;20051;-85
2022/05/06 10:02:08;;;;;;;3.78;3.45;;;16.80;99.90;;;;;;5067923;28;20044;-83
2022/05/06 10:04:35;;;;;;;4.03;3.20;;;17.00;99.90;;;;;;5059228;28;20049;-85
2022/05/06 10:07:03;;;;;;;4.50;3.75;;;17.00;99.90;;;;;;5050394;28;20061;-82
2022/05/06 10:09:34;;;;;;;3.78;3.17;;;17.30;99.90;;;;;;5052921;28;20128;-85
2022/05/06 10:12:02;;;;;;;6.78;3.38;;;17.30;99.90;;;;;;5049088;28;20082;-84
2022/05/06 10:14:29;;;;;;;6.95;3.20;;;17.50;99.90;;;;;;5050809;28;20114;-88
2022/05/06 10:16:54;;;;;;;4.72;3.30;;;17.50;99.90;;;;;;5050269;28;20029;-86
2022/05/06 10:19:26;;;;;;;4.10;3.75;;;17.50;99.90;;;;;;5067097;28;20194;-83
2022/05/06 10:21:52;;;;;;;3.72;2.90;;;17.70;99.90;;;;;;5062889;28;20037;-86
2022/05/06 10:24:20;;;;;;;4.65;2.83;;;17.90;99.90;;;;;;5067530;28;20124;-86
2022/05/06 10:26:51;;;;;;;3.17;2.40;;;17.80;99.90;;;;;;5069520;28;20175;-86
2022/05/06 10:32:33;;;;;;;5.72;1.77;;;18.00;99.90;;;;;;5066149;28;20048;-85
2022/05/06 10:35:01;;;;;;;3.33;1.90;;;17.80;99.90;;;;;;5053763;28;20087;-86
2022/05/06 10:37:36;;;;;;;3.53;2.40;;;17.80;99.90;;;;;;5069496;28;20044;-87
2022/05/06 10:40:25;;;;;;;1.40;1.30;;;17.60;99.90;;;;;;5071108;28;20053;-85
2022/05/06 10:42:52;;;;;;;5.53;2.05;;;18.10;99.90;;;;;;5061226;28;20052;-84
2022/05/06 10:45:32;;;;;;;4.85;2.65;;;18.40;99.90;;;;;;5086168;28;20045;-87
2022/05/06 10:47:58;;;;;;;8.73;3.08;;;18.10;99.90;;;;;;5054639;28;20183;-84
2022/05/06 10:50:25;;;;;;;3.53;3.22;;;18.10;99.90;;;;;;5052659;28;20037;-85
2022/05/06 10:52:52;;;;;;;5.80;2.95;;;18.30;99.90;;;;;;5051844;28;20048;-83
2022/05/06 10:55:21;;;;;;;4.82;2.35;;;18.40;99.90;;;;;;5064830;28;20364;-88
2022/05/06 10:57:55;;;;;;;3.92;2.75;;;18.70;99.90;;;;;;5070620;28;20494;-80
2022/05/06 11:00:22;;;;;;;9.35;2.97;;;18.70;99.90;;;;;;5068966;28;20134;-79
2022/05/06 11:02:48;;;;;;;3.47;2.60;;;18.70;99.90;;;;;;5060254;28;20064;-80
2022/05/06 11:05:15;;;;;;;3.95;3.22;;;18.80;99.90;;;;;;5054301;28;20043;-80
2022/05/06 11:07:46;;;;;;;4.45;3.72;;;18.80;99.90;;;;;;5068254;28;20052;-80
2022/05/06 11:10:33;;;;;;;4.05;3.30;;;18.90;99.90;;;;;;5069326;28;20046;-80
2022/05/06 11:12:59;;;;;;;4.30;3.90;;;18.90;99.90;;;;;;5059234;28;20049;-80
2022/05/06 11:15:27;;;;;;;8.80;4.82;;;18.60;99.90;;;;;;5051972;28;20040;-80
2022/05/06 11:17:56;;;;;;;5.13;4.32;;;18.60;99.90;;;;;;5063129;28;20056;-80
2022/05/06 11:20:27;;;;;;;6.07;5.07;;;18.80;99.90;;;;;;5067645;28;20071;-81
2022/05/06 11:23:13;;;;;;;9.43;5.22;;;19.00;99.90;;;;;;5066043;28;20584;-81
2022/05/06 11:25:48;;;;;;;10.10;4.63;;;18.90;99.90;;;;;;5060977;28;20276;-82
2022/05/06 11:28:17;;;;;;;9.73;5.05;;;18.90;99.90;;;;;;5068015;28;20047;-83
2022/05/06 11:30:45;;;;;;;6.30;4.23;;;19.10;99.90;;;;;;5070752;28;20450;-79
2022/05/06 11:33:24;;;;;;;4.78;4.20;;;19.20;99.90;;;;;;5066039;28;20040;-81
2022/05/06 11:35:51;;;;;;;5.72;5.22;;;19.00;99.90;;;;;;5057883;28;20125;-80
2022/05/06 11:38:34;;;;;;;5.22;4.45;;;19.10;99.90;;;;;;5066961;28;20186;-79
2022/05/06 11:41:14;;;;;;;6.40;4.53;;;19.40;99.90;;;;;;5069165;28;20445;-80
2022/05/06 11:43:42;;;;;;;5.72;3.70;;;19.40;99.90;;;;;;5062417;28;20106;-79
2022/05/06 11:49:01;;;;;;;6.05;3.88;;;19.50;99.90;;;;;;5082958;28;20052;-80
2022/05/06 11:51:30;;;;;;;10.43;3.63;;;19.30;99.90;;;;;;5060816;28;20067;-78
2022/05/06 11:53:57;;;;;;;3.80;3.03;;;19.40;99.90;;;;;;5052186;28;20371;-80
2022/05/06 11:56:25;;;;;;;4.65;3.50;;;19.70;99.90;;;;;;5069384;28;20051;-79
2022/05/06 11:58:55;;;;;;;4.78;4.10;;;19.70;99.90;;;;;;5064804;28;20051;-81
2022/05/06 12:01:32;;;;;;;3.55;3.25;;;19.80;99.90;;;;;;5068048;28;20080;-79
2022/05/06 12:04:02;;;;;;;5.85;2.80;;;19.80;99.90;;;;;;5058074;28;20041;-78
2022/05/06 12:06:27;;;;;;;2.75;1.75;;;19.90;99.90;;;;;;5060099;28;20060;-80
2022/05/06 12:09:09;;;;;;;4.20;3.25;;;19.80;99.90;;;;;;5068039;28;20048;-80
2022/05/06 12:11:35;;;;;;;6.43;4.40;;;19.90;99.90;;;;;;5058124;28;20073;-79
2022/05/06 12:14:17;;;;;;;7.32;4.20;;;20.10;99.90;;;;;;5048577;28;20103;-79
2022/05/06 12:17:05;;;;;;;3.67;1.90;;;20.30;99.90;;;;;;5049385;28;20041;-81
2022/05/06 12:19:47;;;;;;;5.35;3.28;;;20.40;99.90;;;;;;5060229;28;20112;-83
2022/05/06 12:22:25;;;;;;;6.25;2.35;;;19.80;99.90;;;;;;5065795;28;20041;-80
2022/05/06 12:24:55;;;;;;;6.28;1.98;;;19.70;99.90;;;;;;5066051;28;20048;-80
2022/05/06 12:27:33;;;;;;;4.88;2.65;;;19.70;99.90;;;;;;5069189;28;20148;-79
2022/05/06 12:30:01;;;;;;;6.93;2.55;;;20.00;99.90;;;;;;5067885;28;20044;-80
2022/05/06 12:32:30;;;;;;;3.65;2.78;;;20.50;99.90;;;;;;5066799;28;20359;-81
2022/05/06 12:35:09;;;;;;;3.72;2.60;;;20.70;99.90;;;;;;5081620;28;20045;-80
2022/05/06 12:37:35;;;;;;;3.28;2.88;;;20.10;99.90;;;;;;5068591;28;20055;-80
2022/05/06 12:40:02;;;;;;;4.95;3.05;;;20.10;99.90;;;;;;5065967;28;20036;-82
2022/05/06 12:42:27;;;;;;;8.00;3.75;;;20.30;99.90;;;;;;5066544;28;20557;-81
2022/05/06 12:44:53;;;;;;;4.07;2.50;;;20.30;99.90;;;;;;5062787;28;20040;-79
2022/05/06 12:50:07;;;;;;;5.63;3.55;;;20.30;99.90;;;;;;5066867;28;20072;-80
2022/05/06 12:52:35;;;;;;;10.07;4.35;;;19.80;99.90;;;;;;5059358;28;20037;-79
2022/05/06 12:55:01;;;;;;;6.82;5.18;;;20.00;99.90;;;;;;5068277;28;20044;-80
2022/05/06 12:57:28;;;;;;;11.00;5.15;;;19.90;99.90;;;;;;5049759;28;20066;-80
2022/05/06 12:59:54;;;;;;;7.40;5.72;;;20.00;99.90;;;;;;5066466;28;20460;-81
2022/05/06 13:02:19;;;;;;;10.43;6.43;;;20.00;99.90;;;;;;5067277;28;20406;-75
2022/05/06 13:04:45;;;;;;;8.00;6.18;;;19.70;99.90;;;;;;5053106;28;20040;-81
2022/05/06 13:07:11;;;;;;;8.13;7.22;;;19.60;99.90;;;;;;5047711;28;20080;-81
2022/05/06 13:09:36;;;;;;;10.18;7.28;;;19.80;99.90;;;;;;5059018;28;20482;-81
2022/05/06 13:12:06;;;;;;;7.45;6.60;;;20.10;99.90;;;;;;5067169;28;20037;-78
2022/05/06 13:14:31;;;;;;;10.20;8.57;;;20.10;99.90;;;;;;5057580;28;20059;-80
2022/05/06 13:16:57;;;;;;;10.57;6.80;;;19.90;99.90;;;;;;5047058;28;20037;-82
2022/05/06 13:19:23;;;;;;;11.93;7.95;;;20.10;99.90;;;;;;5047404;28;20516;-80
2022/05/06 13:21:48;;;;;;;9.38;8.18;;;20.30;99.90;;;;;;5047025;28;20036;-79
2022/05/06 13:24:14;;;;;;;9.90;7.80;;;20.10;99.90;;;;;;5076318;28;20033;-82